Strona główna
METAR-TAF:

METAR-TAF

Lotnisko :

Port lotniczy Akita

Akita, Japonia

Szerokość geograficzna: 39-37N, Długość geograficzna: 140-13E, wysokość: 93 m

Aktualna obserwacja pogody

Raport powstał 1 godzina i 6 minut temu, godzina 05:00 UTC
Wiatr 6 kt od północny zachód, zmienny między zachód i północno-północny zachód
Temperatura 10°C
Wilgotność 62%
Ciśnienie 1023 hPa
Widzialność 10 km lub więcej
Mało chmury na wysokości 2500 ft
Przerywane chmury na wysokości 4500 ft

METAR: RJSK 150500Z 31006KT 280V340 9999 FEW025 BKN045 10/03 Q1023

czas: 15:06 (06:06 UTC)

Prognoza

Raport powstał 51 minut temu, godzina 05:15 UTC
Prognoza ważna od 15 godzina 06 UTC do 16 godzina 12 UTC
Wiatr 5 kt od zachodnio-północny zachód
Widzialność 10 km lub więcej
Mało chmury na wysokości 2000 ft
Przerywane chmury na wysokości 4000 ft
Stopniowe zmiany
od 15 godzina 10 UTC do 15 godzina 12 UTC
Wiatr 4 kt od południowy wschód

TAF: RJSK 150515Z 1506/1612 30005KT 9999 FEW020 BKN040 BECMG 1510/1512 14004KT

Obserwacja i prognoza pogody dla ponad 4000 lotnisk (raport METAR i TAF).

Dostępne stacje oznaczono żółtymi i czerwonymi punktami na mapie.

Najedź kursorem aby zobaczyć nazwę stacji.

Kliknij aby zobaczyć obserwacje i prognozy pogody.

Aby zmienić mapę: kliknij na zielony przycisk z czarnym krzyżykiem, aby powiększyć; na zielony przycisk z myślnikiem, aby pomniejszyć; na zielone strzałki, aby przejść do map sąsiednich.


METAR-TAF: